Time;durP1;ratioP1;P1;durP2;ratioP2;P2;SDS_P1;SDS_P2;PMS_P1;PMS_P2;Temp;Humidity;BMP_temperature;BMP_pressure;BME280_temperature;BME280_humidity;BME280_pressure;Samples;Min_cycle;Max_cycle;Signal;HPM_P1;HPM_P2
2022/09/13 00:01:39;;;;;;;14.40;5.63;;;23.40;99.90;;;;;;5054529;28;20032;-70
2022/09/13 00:04:05;;;;;;;13.10;5.60;;;23.40;99.90;;;;;;5054297;28;20472;-71
2022/09/13 00:06:31;;;;;;;14.07;6.72;;;23.30;99.90;;;;;;5054261;28;20051;-71
2022/09/13 00:08:57;;;;;;;21.38;7.05;;;23.30;99.90;;;;;;5054448;28;20032;-71
2022/09/13 00:11:25;;;;;;;18.20;7.57;;;23.30;99.90;;;;;;5054161;28;20025;-71
2022/09/13 00:13:52;;;;;;;14.70;6.85;;;23.30;99.90;;;;;;5054330;28;20029;-71
2022/09/13 00:16:20;;;;;;;13.35;6.63;;;23.20;99.90;;;;;;5053960;28;20025;-71
2022/09/13 00:18:46;;;;;;;14.95;6.72;;;23.30;99.90;;;;;;5053992;28;20078;-71
2022/09/13 00:21:16;;;;;;;16.70;6.22;;;23.30;99.90;;;;;;5053944;28;20151;-71
2022/09/13 00:23:47;;;;;;;14.88;6.38;;;23.30;99.90;;;;;;5054295;28;20064;-71
2022/09/13 00:26:22;;;;;;;14.85;6.28;;;23.30;99.90;;;;;;5053937;28;20029;-71
2022/09/13 00:28:53;;;;;;;15.00;5.82;;;23.30;99.90;;;;;;5036041;28;20028;-71
2022/09/13 00:31:22;;;;;;;15.75;6.15;;;23.30;99.90;;;;;;5053727;28;20493;-71
2022/09/13 00:33:48;;;;;;;15.38;5.55;;;23.30;99.90;;;;;;5053964;28;20013;-71
2022/09/13 00:36:14;;;;;;;12.30;5.32;;;23.30;99.90;;;;;;5053750;28;20061;-71
2022/09/13 00:38:42;;;;;;;19.23;5.03;;;23.30;99.90;;;;;;5054006;28;20021;-71
2022/09/13 00:41:12;;;;;;;13.20;4.47;;;23.30;99.90;;;;;;5053484;28;20067;-71
2022/09/13 00:43:53;;;;;;;10.07;4.32;;;23.30;99.90;;;;;;5053381;28;20105;-71
2022/09/13 00:46:28;;;;;;;9.23;4.50;;;23.20;99.90;;;;;;5053714;28;20025;-71
2022/09/13 00:49:09;;;;;;;10.30;4.20;;;23.20;99.90;;;;;;5053578;28;20115;-71
2022/09/13 00:51:36;;;;;;;10.82;4.10;;;23.20;99.90;;;;;;5052860;28;20042;-71
2022/09/13 00:54:02;;;;;;;;;;;23.20;99.90;;;;;;5053789;28;20040;-71
2022/09/13 00:56:40;;;;;;;11.93;4.20;;;23.20;99.90;;;;;;5053513;28;19905;-71
2022/09/13 00:59:19;;;;;;;10.48;4.10;;;23.20;99.90;;;;;;5053642;28;20032;-71
2022/09/13 01:01:48;;;;;;;9.63;3.55;;;23.20;99.90;;;;;;5053447;28;20021;-71
2022/09/13 01:04:18;;;;;;;11.15;3.83;;;23.20;99.90;;;;;;5053183;28;20098;-71
2022/09/13 01:06:44;;;;;;;9.82;3.60;;;23.10;99.90;;;;;;5053178;28;20025;-70
2022/09/13 01:09:11;;;;;;;11.20;3.70;;;23.10;99.90;;;;;;5053479;28;20377;-71
2022/09/13 01:11:59;;;;;;;14.50;3.80;;;23.20;99.90;;;;;;5053113;28;20404;-71
2022/09/13 01:14:26;;;;;;;5.43;2.72;;;23.10;99.90;;;;;;5051832;28;20028;-71
2022/09/13 01:16:53;;;;;;;9.82;3.03;;;23.10;99.90;;;;;;5053392;28;20128;-71
2022/09/13 01:19:19;;;;;;;;;;;23.00;99.90;;;;;;5053272;28;20111;-71
2022/09/13 01:22:17;;;;;;;9.07;2.80;;;23.00;99.90;;;;;;5053158;28;20001;-71
2022/09/13 01:25:18;;;;;;;8.30;3.00;;;23.00;99.90;;;;;;5053000;28;20037;-70
2022/09/13 01:28:03;;;;;;;6.22;2.30;;;23.00;99.90;;;;;;5030740;28;20034;-71
2022/09/13 01:31:08;;;;;;;8.77;2.70;;;23.00;99.90;;;;;;5050603;28;20052;-71
2022/09/13 01:33:40;;;;;;;8.82;2.70;;;22.90;99.90;;;;;;5044263;28;20068;-71
2022/09/13 01:36:52;;;;;;;7.32;2.28;;;22.90;99.90;;;;;;5052825;28;20029;-70
2022/09/13 01:39:54;;;;;;;8.65;2.20;;;22.90;99.90;;;;;;5052961;28;20021;-71
2022/09/13 01:42:45;;;;;;;6.43;2.25;;;22.90;99.90;;;;;;5051257;28;20056;-70
2022/09/13 01:45:20;;;;;;;7.60;2.25;;;22.80;99.90;;;;;;5052314;28;20041;-70
2022/09/13 01:48:01;;;;;;;10.15;2.30;;;22.80;99.90;;;;;;5052552;28;20047;-70
2022/09/13 01:50:34;;;;;;;6.47;1.70;;;22.80;99.90;;;;;;5050737;28;20107;-71
2022/09/13 01:53:27;;;;;;;7.47;1.80;;;22.80;99.90;;;;;;5052092;28;20444;-71
2022/09/13 01:56:04;;;;;;;6.43;1.60;;;22.70;99.90;;;;;;5046792;28;20087;-71
2022/09/13 01:58:45;;;;;;;7.10;1.73;;;22.70;99.90;;;;;;5052599;28;20045;-71
2022/09/13 02:01:18;;;;;;;6.75;1.50;;;22.80;99.90;;;;;;5052250;28;20086;-71
2022/09/13 02:03:52;;;;;;;5.95;1.63;;;22.80;99.90;;;;;;5052654;28;20063;-71
2022/09/13 02:06:22;;;;;;;7.85;1.90;;;22.80;99.90;;;;;;5052089;28;20480;-71
2022/09/13 02:08:59;;;;;;;4.88;1.50;;;22.80;99.90;;;;;;5052168;28;20103;-70
2022/09/13 02:11:25;;;;;;;;;;;22.80;99.90;;;;;;5050658;28;20457;-70
2022/09/13 02:14:10;;;;;;;7.32;1.88;;;22.70;99.90;;;;;;5051847;28;20273;-70
2022/09/13 02:16:49;;;;;;;8.85;1.90;;;22.70;99.90;;;;;;5051793;28;20118;-70
2022/09/13 02:19:39;;;;;;;6.13;1.67;;;22.60;99.90;;;;;;5050123;28;20104;-71
2022/09/13 02:22:10;;;;;;;6.15;1.63;;;22.60;99.90;;;;;;5048087;28;20045;-71
2022/09/13 02:24:44;;;;;;;11.60;2.70;;;22.60;99.90;;;;;;5051649;28;20091;-71
2022/09/13 02:27:19;;;;;;;7.78;1.90;;;22.50;99.90;;;;;;5051956;28;20028;-71
2022/09/13 02:29:48;;;;;;;6.28;1.88;;;22.40;99.90;;;;;;5051587;28;20029;-70
2022/09/13 02:32:24;;;;;;;9.88;1.90;;;22.50;99.90;;;;;;5051205;28;20041;-71
2022/09/13 02:35:13;;;;;;;5.75;1.70;;;22.50;99.90;;;;;;5051522;28;20039;-71
2022/09/13 02:37:42;;;;;;;8.73;2.17;;;22.50;99.90;;;;;;5051269;28;20032;-71
2022/09/13 02:40:14;;;;;;;5.05;1.95;;;22.40;99.90;;;;;;5051674;28;20104;-71
2022/09/13 02:42:47;;;;;;;8.00;2.00;;;22.50;99.90;;;;;;5051668;28;20048;-71
2022/09/13 02:45:13;;;;;;;8.23;1.70;;;22.50;99.90;;;;;;5050394;28;20029;-71
2022/09/13 02:47:42;;;;;;;6.28;2.03;;;22.50;99.90;;;;;;5050610;28;20021;-71
2022/09/13 02:50:29;;;;;;;7.10;1.63;;;22.40;99.90;;;;;;5050802;28;20029;-71
2022/09/13 02:53:13;;;;;;;;;;;22.40;99.90;;;;;;5050795;28;20053;-71
2022/09/13 02:55:43;;;;;;;5.95;1.73;;;22.40;99.90;;;;;;5050466;28;20314;-72
2022/09/13 02:58:18;;;;;;;5.22;1.77;;;22.40;99.90;;;;;;5051149;28;20108;-70
2022/09/13 03:00:46;;;;;;;7.80;1.95;;;22.40;99.90;;;;;;5051210;28;20087;-70
2022/09/13 03:03:15;;;;;;;9.32;2.20;;;22.40;99.90;;;;;;5051600;28;20051;-71
2022/09/13 03:05:41;;;;;;;5.60;1.77;;;22.40;99.90;;;;;;5050975;28;20090;-71
2022/09/13 03:08:09;;;;;;;9.63;2.03;;;22.40;99.90;;;;;;5051535;28;20090;-71
2022/09/13 03:10:51;;;;;;;6.78;1.90;;;22.40;99.90;;;;;;5049846;28;20143;-70
2022/09/13 03:13:35;;;;;;;4.78;1.63;;;22.30;99.90;;;;;;5050921;28;20040;-71
2022/09/13 03:16:14;;;;;;;9.05;2.20;;;22.40;99.90;;;;;;5051321;28;20527;-71
2022/09/13 03:19:26;;;;;;;7.38;1.73;;;22.30;99.90;;;;;;5051552;28;20104;-71
2022/09/13 03:22:14;;;;;;;5.30;1.52;;;22.20;99.90;;;;;;5029537;28;20035;-71
2022/09/13 03:25:06;;;;;;;8.75;1.67;;;22.20;99.90;;;;;;5052360;28;20036;-71
2022/09/13 03:28:03;;;;;;;5.50;1.20;;;22.10;99.90;;;;;;5051931;28;20032;-70
2022/09/13 03:30:33;;;;;;;7.13;1.38;;;22.10;99.90;;;;;;5051841;28;20076;-70
2022/09/13 03:33:20;;;;;;;6.13;1.30;;;22.00;99.90;;;;;;5051657;28;20053;-70
2022/09/13 03:35:57;;;;;;;9.45;1.80;;;21.90;99.90;;;;;;5052094;28;20104;-70
2022/09/13 03:39:13;;;;;;;7.00;1.40;;;21.90;99.90;;;;;;5051838;28;20074;-70
2022/09/13 03:41:50;;;;;;;5.82;1.30;;;21.80;99.90;;;;;;5029431;28;20053;-70
2022/09/13 03:44:20;;;;;;;5.03;1.20;;;21.70;99.90;;;;;;5013089;28;20132;-70
2022/09/13 03:46:53;;;;;;;8.00;1.52;;;21.70;99.90;;;;;;5029867;28;20064;-70
2022/09/13 03:49:22;;;;;;;8.25;1.50;;;21.70;99.90;;;;;;5029698;28;20052;-70
2022/09/13 03:51:50;;;;;;;5.85;1.00;;;21.60;99.90;;;;;;5029422;28;20026;-70
2022/09/13 03:54:20;;;;;;;6.88;1.30;;;21.60;99.90;;;;;;5029068;28;20195;-70
2022/09/13 03:57:15;;;;;;;5.20;1.20;;;21.50;99.90;;;;;;5029433;28;20053;-70
2022/09/13 03:59:52;;;;;;;7.68;1.27;;;21.50;99.90;;;;;;5029739;28;20025;-70
2022/09/13 04:02:20;;;;;;;4.97;1.42;;;21.40;99.90;;;;;;5029508;28;20065;-70
2022/09/13 04:04:47;;;;;;;5.78;1.63;;;21.40;99.90;;;;;;5028915;28;20037;-70
2022/09/13 04:07:16;;;;;;;8.15;1.55;;;21.50;99.90;;;;;;5029099;28;20167;-70
2022/09/13 04:09:42;;;;;;;7.10;1.42;;;21.50;99.90;;;;;;5029058;28;20069;-70
2022/09/13 04:12:12;;;;;;;8.00;1.58;;;21.50;99.90;;;;;;5029412;28;20513;-70
2022/09/13 04:14:39;;;;;;;5.35;1.13;;;21.50;99.90;;;;;;5018231;28;20061;-70
2022/09/13 04:17:06;;;;;;;6.05;1.35;;;21.50;99.90;;;;;;5051673;28;20031;-70
2022/09/13 04:19:32;;;;;;;5.40;1.33;;;21.60;99.90;;;;;;5052330;28;20017;-70
2022/09/13 04:21:59;;;;;;;5.28;1.50;;;21.60;99.90;;;;;;5052307;28;20025;-70
2022/09/13 04:24:26;;;;;;;;;;;21.60;99.90;;;;;;5052430;28;20547;-70
2022/09/13 04:26:53;;;;;;;8.95;1.30;;;21.70;99.90;;;;;;5055874;28;19931;-70
2022/09/13 04:29:21;;;;;;;3.60;1.25;;;21.70;99.90;;;;;;5054270;28;20124;-70
2022/09/13 04:31:48;;;;;;;11.85;1.45;;;21.70;99.90;;;;;;5055525;28;20462;-71
2022/09/13 04:34:14;;;;;;;7.82;1.65;;;21.70;99.90;;;;;;5055638;28;20108;-70
2022/09/13 04:36:41;;;;;;;6.07;1.10;;;21.70;99.90;;;;;;5054329;28;20021;-70
2022/09/13 04:39:07;;;;;;;6.20;1.50;;;21.70;99.90;;;;;;5055766;28;20353;-70
2022/09/13 04:41:33;;;;;;;11.05;1.95;;;21.70;99.90;;;;;;5055470;28;20022;-70
2022/09/13 04:44:00;;;;;;;7.72;1.63;;;21.70;99.90;;;;;;5055058;28;20120;-70
2022/09/13 04:46:27;;;;;;;7.70;1.50;;;21.70;99.90;;;;;;5055565;28;20055;-70
2022/09/13 04:48:54;;;;;;;6.43;1.48;;;21.70;99.90;;;;;;5055717;28;20032;-70
2022/09/13 04:51:20;;;;;;;;;;;21.80;99.90;;;;;;5055496;28;20036;-70
2022/09/13 04:53:53;;;;;;;9.98;1.75;;;21.80;99.90;;;;;;5055402;28;19904;-70
2022/09/13 04:56:19;;;;;;;8.23;1.60;;;21.80;99.90;;;;;;5055243;28;20357;-70
2022/09/13 04:58:45;;;;;;;8.52;1.27;;;21.80;99.90;;;;;;5054950;28;20048;-70
2022/09/13 05:01:11;;;;;;;5.30;1.35;;;21.70;99.90;;;;;;5054971;28;20036;-71
2022/09/13 05:03:38;;;;;;;5.38;1.20;;;21.80;99.90;;;;;;5055753;28;20469;-70
2022/09/13 05:06:16;;;;;;;4.22;1.02;;;21.70;99.90;;;;;;5055326;28;20056;-71
2022/09/13 05:08:43;;;;;;;8.57;1.52;;;21.70;99.90;;;;;;5054990;28;20013;-71
2022/09/13 05:11:10;;;;;;;11.75;1.50;;;21.70;99.90;;;;;;5053550;28;20033;-70
2022/09/13 05:13:36;;;;;;;8.75;1.60;;;21.70;99.90;;;;;;5054552;28;20146;-70
2022/09/13 05:16:05;;;;;;;4.18;1.30;;;21.70;99.90;;;;;;5054571;28;20473;-71
2022/09/13 05:18:34;;;;;;;5.05;1.38;;;21.80;99.90;;;;;;5054860;28;20480;-71
2022/09/13 05:21:03;;;;;;;5.15;1.50;;;21.80;99.90;;;;;;5055081;28;20028;-70
2022/09/13 05:23:30;;;;;;;5.55;1.45;;;21.80;99.90;;;;;;5054455;28;20039;-72
2022/09/13 05:26:02;;;;;;;6.00;1.15;;;21.90;99.90;;;;;;5054491;28;20393;-69
2022/09/13 05:28:30;;;;;;;7.43;1.27;;;21.90;99.90;;;;;;5054632;28;20040;-72
2022/09/13 05:31:01;;;;;;;7.40;1.55;;;21.90;99.90;;;;;;5053697;28;20052;-73
2022/09/13 05:33:31;;;;;;;5.07;1.05;;;21.90;99.90;;;;;;5052541;28;20060;-72
2022/09/13 05:35:57;;;;;;;6.72;1.30;;;22.40;99.90;;;;;;5054036;28;20025;-70
2022/09/13 05:38:24;;;;;;;6.82;1.55;;;23.20;99.90;;;;;;5053430;28;20039;-71
2022/09/13 05:40:55;;;;;;;8.07;1.50;;;24.10;99.90;;;;;;5053413;28;20029;-70
2022/09/13 05:43:23;;;;;;;7.22;1.52;;;24.90;99.90;;;;;;5053479;28;20424;-70
2022/09/13 05:46:04;;;;;;;3.92;1.35;;;25.70;99.90;;;;;;5053508;28;20211;-70
2022/09/13 05:48:32;;;;;;;5.30;1.48;;;26.40;99.90;;;;;;5053044;28;20426;-71
2022/09/13 05:51:13;;;;;;;7.60;1.90;;;26.80;99.90;;;;;;5052517;28;20025;-70
2022/09/13 05:53:42;;;;;;;6.18;1.40;;;27.40;99.90;;;;;;5053113;28;20012;-70
2022/09/13 05:56:13;;;;;;;7.82;1.85;;;28.20;99.90;;;;;;5051397;28;20036;-71
2022/09/13 05:58:43;;;;;;;13.38;1.90;;;28.50;99.90;;;;;;5053259;28;20021;-71
2022/09/13 06:01:11;;;;;;;5.80;1.30;;;28.60;99.90;;;;;;5053103;28;20017;-71
2022/09/13 06:03:40;;;;;;;5.63;1.30;;;29.00;99.90;;;;;;5053110;28;20395;-73
2022/09/13 06:06:07;;;;;;;6.70;1.20;;;29.20;99.90;;;;;;5053153;28;20050;-70
2022/09/13 06:08:35;;;;;;;6.05;1.30;;;29.70;99.90;;;;;;5053326;28;20049;-71
2022/09/13 06:11:06;;;;;;;8.23;1.58;;;29.90;99.90;;;;;;5051625;28;20025;-71
2022/09/13 06:13:33;;;;;;;5.63;1.48;;;30.40;99.90;;;;;;5053073;28;20132;-72
2022/09/13 06:16:01;;;;;;;5.32;1.40;;;30.20;99.90;;;;;;5053155;28;20017;-72
2022/09/13 06:18:27;;;;;;;5.65;1.42;;;30.40;99.90;;;;;;5053478;28;20543;-72
2022/09/13 06:21:02;;;;;;;6.53;1.10;;;31.00;99.90;;;;;;5053606;28;20096;-71
2022/09/13 06:23:29;;;;;;;6.88;1.35;;;31.00;99.90;;;;;;5053857;28;20093;-71
2022/09/13 06:26:05;;;;;;;5.07;1.40;;;31.80;99.90;;;;;;5053448;28;20029;-71
2022/09/13 06:28:31;;;;;;;5.03;1.35;;;32.20;99.90;;;;;;5053599;28;20049;-73
2022/09/13 06:31:17;;;;;;;5.68;1.38;;;32.30;99.90;;;;;;5053159;28;20053;-71
2022/09/13 06:33:43;;;;;;;;;;;33.50;99.90;;;;;;5053864;28;20035;-72
2022/09/13 06:36:12;;;;;;;6.82;1.33;;;33.40;99.90;;;;;;5052879;28;19912;-70
2022/09/13 06:38:39;;;;;;;4.60;1.30;;;34.40;99.20;;;;;;5052840;28;20056;-71
2022/09/13 06:41:08;;;;;;;7.95;1.63;;;35.40;98.60;;;;;;5053017;28;20037;-71
2022/09/13 06:43:35;;;;;;;4.60;1.40;;;36.00;97.50;;;;;;5051606;28;20033;-72
2022/09/13 06:46:08;;;;;;;4.78;1.40;;;36.50;97.30;;;;;;5053163;28;20381;-72
2022/09/13 06:48:37;;;;;;;4.82;1.50;;;36.80;97.00;;;;;;5052605;28;20043;-73
2022/09/13 06:51:05;;;;;;;6.68;1.48;;;36.10;97.30;;;;;;5053358;28;20044;-72
2022/09/13 06:53:34;;;;;;;4.72;1.40;;;35.60;97.80;;;;;;5053350;28;20100;-71
2022/09/13 06:56:18;;;;;;;5.00;1.60;;;34.80;98.10;;;;;;5052857;28;20032;-70
2022/09/13 06:58:47;;;;;;;5.03;1.00;;;33.90;99.10;;;;;;5053030;28;20407;-71
2022/09/13 07:01:20;;;;;;;6.00;1.42;;;33.50;99.60;;;;;;5051341;28;20070;-71
2022/09/13 07:03:48;;;;;;;6.10;1.73;;;32.40;99.90;;;;;;5051465;28;20460;-71
2022/09/13 07:06:20;;;;;;;6.68;1.38;;;32.90;99.90;;;;;;5052719;28;20068;-72
2022/09/13 07:08:47;;;;;;;6.65;1.92;;;33.20;99.90;;;;;;5052749;28;20035;-71
2022/09/13 07:11:17;;;;;;;7.22;1.50;;;33.50;99.80;;;;;;5053536;28;20076;-73
2022/09/13 07:13:48;;;;;;;3.78;1.42;;;33.70;99.60;;;;;;5051909;28;20021;-72
2022/09/13 07:16:14;;;;;;;5.00;1.38;;;34.70;99.20;;;;;;5051533;28;20029;-72
2022/09/13 07:18:40;;;;;;;6.90;1.50;;;34.20;98.60;;;;;;5053168;28;20096;-71
2022/09/13 07:21:09;;;;;;;5.40;1.33;;;34.70;98.90;;;;;;5052431;28;20366;-72
2022/09/13 07:23:38;;;;;;;7.75;1.75;;;34.20;98.40;;;;;;5050953;28;20523;-71
2022/09/13 07:26:06;;;;;;;5.40;1.50;;;34.20;98.70;;;;;;5052905;28;20033;-73
2022/09/13 07:28:44;;;;;;;6.63;1.60;;;34.30;98.40;;;;;;5052769;28;20111;-72
2022/09/13 07:31:16;;;;;;;5.80;1.40;;;33.60;98.90;;;;;;5052678;28;20049;-72
2022/09/13 07:33:43;;;;;;;5.60;1.60;;;32.20;99.90;;;;;;5053091;28;20028;-72
2022/09/13 07:36:11;;;;;;;8.10;1.52;;;31.70;99.90;;;;;;5052346;28;20096;-72
2022/09/13 07:38:39;;;;;;;3.83;1.10;;;32.00;99.90;;;;;;5051165;28;20106;-71
2022/09/13 07:41:09;;;;;;;8.25;1.77;;;31.20;98.40;;;;;;5052201;28;20021;-71
2022/09/13 07:43:36;;;;;;;4.82;1.38;;;30.70;99.80;;;;;;5052620;28;20036;-71
2022/09/13 07:46:11;;;;;;;5.07;1.45;;;30.70;99.80;;;;;;5052267;28;20121;-72
2022/09/13 07:48:39;;;;;;;7.45;1.85;;;30.70;98.70;;;;;;5051721;28;20433;-71
2022/09/13 07:51:09;;;;;;;3.95;1.25;;;30.40;99.50;;;;;;5051883;28;20496;-71
2022/09/13 07:53:37;;;;;;;5.68;1.30;;;30.10;99.60;;;;;;5052084;28;20029;-71
2022/09/13 07:56:15;;;;;;;5.50;1.48;;;30.00;98.20;;;;;;5051482;28;20040;-70
2022/09/13 07:58:43;;;;;;;7.30;1.60;;;30.00;99.00;;;;;;5052118;28;20116;-71
2022/09/13 08:01:13;;;;;;;5.78;1.25;;;30.40;99.00;;;;;;5056323;28;20060;-71
2022/09/13 08:03:39;;;;;;;3.75;1.10;;;30.60;98.40;;;;;;5056417;28;20068;-72
2022/09/13 08:06:06;;;;;;;;;;;30.40;98.10;;;;;;5055664;28;20094;-71
2022/09/13 08:08:33;;;;;;;6.20;1.58;;;30.20;98.50;;;;;;5053934;28;19904;-72
2022/09/13 08:11:00;;;;;;;6.40;1.15;;;30.00;98.30;;;;;;5053744;28;20458;-71
2022/09/13 08:13:27;;;;;;;4.50;1.15;;;29.70;98.00;;;;;;5055491;28;20029;-71
2022/09/13 08:15:55;;;;;;;3.90;1.10;;;29.70;98.10;;;;;;5054827;28;20025;-71
2022/09/13 08:18:21;;;;;;;4.10;1.40;;;29.40;98.40;;;;;;5055106;28;20025;-71
2022/09/13 08:20:47;;;;;;;;;;;29.70;98.40;;;;;;5055799;28;20022;-71
2022/09/13 08:23:14;;;;;;;4.25;1.27;;;30.20;97.90;;;;;;5054369;28;20383;-71
2022/09/13 08:25:40;;;;;;;6.53;1.40;;;30.80;97.60;;;;;;5056547;28;20090;-71
2022/09/13 08:28:06;;;;;;;;;;;31.20;96.90;;;;;;5054292;28;20350;-71
2022/09/13 08:30:36;;;;;;;3.13;1.10;;;31.50;95.90;;;;;;5055222;28;20410;-72
2022/09/13 08:33:03;;;;;;;4.07;1.30;;;31.90;95.40;;;;;;5055995;28;20477;-73
2022/09/13 08:35:32;;;;;;;4.18;1.10;;;31.80;95.70;;;;;;5055261;28;20131;-72
2022/09/13 08:37:59;;;;;;;4.70;1.00;;;31.30;96.00;;;;;;5055478;28;20075;-71
2022/09/13 08:40:28;;;;;;;4.22;1.27;;;31.00;94.70;;;;;;5055255;28;20127;-71
2022/09/13 08:42:54;;;;;;;7.25;1.40;;;31.20;94.40;;;;;;5055408;28;20029;-72
2022/09/13 08:45:22;;;;;;;4.38;0.95;;;31.30;95.90;;;;;;5055643;28;20041;-72
2022/09/13 08:47:55;;;;;;;8.63;1.60;;;31.40;94.90;;;;;;5055395;28;20434;-71
2022/09/13 08:50:28;;;;;;;5.60;1.23;;;30.80;95.00;;;;;;5055455;28;20033;-72
2022/09/13 08:53:21;;;;;;;3.13;1.08;;;30.60;95.30;;;;;;5053014;28;20025;-70
2022/09/13 08:56:11;;;;;;;3.67;1.42;;;30.40;95.50;;;;;;5054041;28;20095;-71
2022/09/13 08:59:05;;;;;;;8.57;5.22;;;30.70;95.10;;;;;;5054307;28;20106;-71
2022/09/13 09:01:45;;;;;;;7.00;1.67;;;31.10;93.50;;;;;;5053997;28;20417;-71
2022/09/13 09:04:33;;;;;;;5.63;1.60;;;31.40;99.30;;;;;;5055248;28;20428;-72
2022/09/13 09:07:11;;;;;;;7.38;1.52;;;31.80;99.90;;;;;;5054462;28;20025;-71
2022/09/13 09:10:03;;;;;;;6.63;1.80;;;32.00;99.90;;;;;;5054474;28;20032;-72
2022/09/13 09:12:45;;;;;;;8.07;1.92;;;32.10;99.90;;;;;;5053127;28;20063;-71
2022/09/13 09:15:13;;;;;;;7.22;2.08;;;32.30;99.90;;;;;;5054255;28;20159;-72
2022/09/13 09:17:58;;;;;;;6.95;1.92;;;32.30;99.90;;;;;;5054467;28;20036;-71
2022/09/13 09:20:39;;;;;;;9.02;1.70;;;32.10;99.90;;;;;;5054225;28;20025;-71
2022/09/13 09:23:24;;;;;;;9.35;1.92;;;31.90;99.90;;;;;;5054528;28;20473;-71
2022/09/13 09:25:59;;;;;;;7.45;1.98;;;31.90;99.90;;;;;;5052583;28;20043;-71
2022/09/13 09:28:30;;;;;;;6.28;1.63;;;31.80;99.90;;;;;;5053986;28;20048;-71
2022/09/13 09:31:09;;;;;;;10.38;2.10;;;31.70;99.90;;;;;;5053657;28;20053;-71
2022/09/13 09:33:50;;;;;;;6.97;1.52;;;31.50;99.90;;;;;;5054546;28;20033;-71
2022/09/13 09:36:45;;;;;;;6.20;1.35;;;31.70;99.90;;;;;;5054554;28;20033;-71
2022/09/13 09:39:15;;;;;;;5.93;1.75;;;31.70;99.90;;;;;;5053746;28;20044;-70
2022/09/13 09:41:43;;;;;;;7.05;1.45;;;31.70;99.90;;;;;;5051603;28;20418;-70
2022/09/13 09:44:22;;;;;;;6.50;1.65;;;31.70;99.90;;;;;;5053875;28;20548;-71
2022/09/13 09:46:55;;;;;;;5.90;1.30;;;31.60;99.90;;;;;;5053851;28;20040;-71
2022/09/13 09:52:45;;;;;;;4.18;1.10;;;31.10;99.90;;;;;;5053600;28;20036;-71
2022/09/13 09:55:39;;;;;;;5.72;1.20;;;31.10;99.90;;;;;;5052148;28;20485;-71
2022/09/13 09:58:07;;;;;;;5.30;1.40;;;30.80;99.90;;;;;;5043561;28;20158;-72
2022/09/13 10:00:36;;;;;;;7.00;1.73;;;30.90;99.90;;;;;;5051724;28;20410;-72
2022/09/13 10:03:28;;;;;;;8.93;1.42;;;31.00;99.90;;;;;;5051392;28;20378;-71
2022/09/13 10:06:06;;;;;;;6.35;1.60;;;31.10;99.90;;;;;;5049761;28;20057;-72
2022/09/13 10:08:38;;;;;;;3.67;1.10;;;31.10;99.90;;;;;;5052319;28;20017;-71
2022/09/13 10:11:06;;;;;;;5.03;1.33;;;31.20;99.90;;;;;;5052921;28;20063;-70
2022/09/13 10:13:33;;;;;;;24.75;1.85;;;31.00;99.90;;;;;;5053214;28;20073;-70
2022/09/13 10:16:05;;;;;;;6.05;1.48;;;31.10;99.90;;;;;;5052909;28;20108;-72
2022/09/13 10:18:34;;;;;;;11.20;1.38;;;31.20;99.90;;;;;;5053925;28;20025;-71
2022/09/13 10:21:05;;;;;;;5.63;1.30;;;31.20;99.90;;;;;;5054053;28;20132;-71
2022/09/13 10:23:33;;;;;;;4.75;1.60;;;31.10;99.90;;;;;;5051235;28;20115;-72
2022/09/13 10:26:02;;;;;;;6.95;1.40;;;31.20;99.90;;;;;;5053448;28;20029;-71
2022/09/13 10:28:31;;;;;;;6.97;1.10;;;31.20;99.90;;;;;;5053766;28;20013;-71
2022/09/13 10:31:00;;;;;;;9.55;1.20;;;31.20;99.90;;;;;;5052783;28;20068;-71
2022/09/13 10:33:28;;;;;;;6.18;1.00;;;31.10;99.90;;;;;;5053252;28;20021;-71
2022/09/13 10:35:58;;;;;;;4.10;1.08;;;31.30;99.90;;;;;;5053667;28;20459;-71
2022/09/13 10:38:31;;;;;;;6.38;1.38;;;31.40;99.90;;;;;;5053441;28;20021;-71
2022/09/13 10:41:00;;;;;;;7.43;1.35;;;31.40;99.90;;;;;;5053573;28;20053;-71
2022/09/13 10:43:28;;;;;;;7.60;1.38;;;31.40;99.90;;;;;;5053298;28;20022;-71
2022/09/13 10:45:55;;;;;;;3.30;1.00;;;31.50;99.90;;;;;;5052740;28;20163;-72
2022/09/13 10:48:23;;;;;;;4.45;1.08;;;31.50;99.90;;;;;;5051457;28;20021;-72
2022/09/13 10:51:15;;;;;;;2.80;0.90;;;31.40;99.90;;;;;;5053094;28;20029;-72
2022/09/13 10:53:42;;;;;;;4.85;1.35;;;31.40;99.90;;;;;;5053403;28;20462;-72
2022/09/13 10:56:26;;;;;;;7.85;1.98;;;31.30;99.90;;;;;;5052463;28;20028;-71
2022/09/13 10:59:15;;;;;;;5.28;1.25;;;31.30;99.90;;;;;;5052991;28;20048;-72
2022/09/13 11:02:12;;;;;;;7.95;1.20;;;31.20;99.90;;;;;;5052864;28;20047;-72
2022/09/13 11:04:41;;;;;;;3.83;0.98;;;31.40;99.90;;;;;;5051582;28;20064;-72
2022/09/13 11:07:22;;;;;;;6.00;1.27;;;31.40;99.90;;;;;;5051232;28;20033;-72
2022/09/13 11:10:03;;;;;;;6.35;1.27;;;31.40;99.90;;;;;;5052979;28;20021;-72
2022/09/13 11:12:37;;;;;;;18.20;1.38;;;31.40;99.90;;;;;;5053071;28;20025;-71
2022/09/13 11:15:22;;;;;;;4.70;1.30;;;31.40;99.90;;;;;;5053135;28;20040;-71
2022/09/13 11:18:17;;;;;;;7.00;1.30;;;31.20;99.90;;;;;;5053505;28;20029;-71
2022/09/13 11:20:54;;;;;;;12.65;1.35;;;31.40;99.90;;;;;;5044242;28;20033;-71
2022/09/13 11:23:38;;;;;;;9.43;1.58;;;31.40;99.90;;;;;;5051434;28;20032;-71
2022/09/13 11:26:16;;;;;;;5.70;1.35;;;31.20;99.90;;;;;;5052836;28;20115;-71
2022/09/13 11:29:08;;;;;;;11.27;1.42;;;30.90;99.90;;;;;;5052984;28;20021;-71
2022/09/13 11:31:58;;;;;;;16.92;1.58;;;31.00;99.90;;;;;;5052301;28;20130;-71
2022/09/13 11:34:32;;;;;;;10.88;1.13;;;30.90;99.90;;;;;;5052865;28;20056;-71
2022/09/13 11:37:54;;;;;;;8.60;1.58;;;30.60;99.90;;;;;;5053345;28;20438;-71
2022/09/13 11:40:37;;;;;;;9.25;1.70;;;30.80;99.90;;;;;;5030720;28;20033;-71
2022/09/13 11:43:30;;;;;;;9.48;1.50;;;30.80;99.90;;;;;;5030621;28;20112;-71
2022/09/13 11:46:05;;;;;;;3.88;0.95;;;31.00;99.90;;;;;;5031423;28;20548;-71
2022/09/13 11:49:07;;;;;;;6.97;1.05;;;31.00;99.90;;;;;;5014067;28;20037;-71
2022/09/13 11:51:36;;;;;;;5.60;1.33;;;31.00;99.90;;;;;;4979226;28;20038;-71
2022/09/13 11:54:07;;;;;;;5.90;1.25;;;31.00;99.90;;;;;;5030674;28;20025;-71
2022/09/13 11:56:40;;;;;;;9.95;1.90;;;30.90;99.90;;;;;;5030369;28;20026;-72
2022/09/13 11:59:31;;;;;;;5.18;1.30;;;30.70;99.90;;;;;;5030640;28;20037;-71
2022/09/13 12:02:03;;;;;;;5.07;1.00;;;30.70;99.90;;;;;;5030283;28;20051;-72
2022/09/13 12:04:49;;;;;;;5.80;1.08;;;30.80;99.90;;;;;;5030454;28;20060;-71
2022/09/13 12:07:41;;;;;;;6.03;1.30;;;31.00;99.90;;;;;;5013637;28;20025;-71
2022/09/13 12:10:19;;;;;;;5.15;1.13;;;30.90;99.90;;;;;;5017850;28;20056;-71
2022/09/13 12:12:48;;;;;;;4.93;0.90;;;31.00;99.90;;;;;;5050695;28;20497;-71
2022/09/13 12:15:46;;;;;;;7.25;1.40;;;31.20;99.90;;;;;;5052348;28;20017;-71
2022/09/13 12:18:39;;;;;;;6.25;1.52;;;31.00;99.90;;;;;;5029965;28;20033;-71
2022/09/13 12:21:13;;;;;;;8.30;1.40;;;30.80;99.90;;;;;;5030970;28;20557;-71
2022/09/13 12:23:59;;;;;;;5.45;1.20;;;30.70;99.90;;;;;;5030254;28;20057;-71
2022/09/13 12:26:48;;;;;;;5.85;1.15;;;30.90;99.90;;;;;;5030980;28;20033;-71
2022/09/13 12:29:21;;;;;;;7.40;1.20;;;30.90;99.90;;;;;;5030580;28;20142;-70
2022/09/13 12:31:47;;;;;;;5.72;1.38;;;30.90;99.90;;;;;;5030230;28;20050;-71
2022/09/13 12:34:27;;;;;;;8.45;1.25;;;31.10;99.90;;;;;;5030644;28;20140;-72
2022/09/13 12:37:22;;;;;;;9.50;1.30;;;31.40;99.90;;;;;;5031059;28;20505;-71
2022/09/13 12:40:13;;;;;;;10.38;1.77;;;31.40;99.90;;;;;;5031037;28;20044;-71
2022/09/13 12:43:04;;;;;;;6.35;1.05;;;31.60;99.90;;;;;;5031209;28;20108;-71
2022/09/13 12:45:57;;;;;;;5.50;1.20;;;31.80;99.90;;;;;;5031042;28;20099;-71
2022/09/13 12:48:32;;;;;;;10.52;1.25;;;31.80;99.90;;;;;;5034616;28;20044;-71
2022/09/13 12:51:17;;;;;;;7.60;1.40;;;31.70;99.90;;;;;;5034548;28;20474;-71
2022/09/13 12:53:45;;;;;;;6.37;1.53;;;31.50;99.90;;;;;;5037401;28;20087;-71
2022/09/13 12:56:38;;;;;;;5.10;1.08;;;31.40;99.90;;;;;;5055657;28;20028;-72
2022/09/13 12:59:28;;;;;;;6.43;1.13;;;31.60;99.90;;;;;;5056139;28;20056;-71
2022/09/13 13:01:54;;;;;;;4.63;1.10;;;31.70;99.90;;;;;;5045498;28;20101;-71
2022/09/13 13:04:29;;;;;;;7.30;1.50;;;31.70;99.90;;;;;;5055540;28;20112;-71
2022/09/13 13:07:02;;;;;;;5.90;1.52;;;31.80;99.90;;;;;;5055884;28;20029;-72
2022/09/13 13:09:47;;;;;;;4.18;0.90;;;32.00;99.90;;;;;;5055346;28;20021;-71
2022/09/13 13:12:33;;;;;;;4.85;0.98;;;31.80;99.90;;;;;;5055290;28;20032;-71
2022/09/13 13:15:03;;;;;;;4.95;0.90;;;31.90;99.90;;;;;;5055462;28;20060;-71
2022/09/13 13:17:50;;;;;;;5.78;1.20;;;31.80;99.90;;;;;;5054944;28;20488;-71
2022/09/13 13:21:04;;;;;;;4.13;0.93;;;31.70;99.90;;;;;;5053821;28;20136;-71
2022/09/13 13:23:34;;;;;;;5.78;1.10;;;31.70;99.90;;;;;;5055478;28;20032;-71
2022/09/13 13:26:12;;;;;;;5.13;0.80;;;31.80;99.90;;;;;;5055278;28;20025;-71
2022/09/13 13:28:44;;;;;;;4.97;0.95;;;31.60;99.90;;;;;;5055576;28;20053;-71
2022/09/13 13:31:28;;;;;;;4.95;0.98;;;31.80;99.90;;;;;;5055037;28;20041;-71